Time;durP1;ratioP1;P1;durP2;ratioP2;P2;SDS_P1;SDS_P2;PMS_P1;PMS_P2;Temp;Humidity;BMP_temperature;BMP_pressure;BME280_temperature;BME280_humidity;BME280_pressure;Samples;Min_cycle;Max_cycle;Signal;HPM_P1;HPM_P2
2022/06/02 00:04:05;;;;;;;;;;;;;;;10.61;74.40;99502.09;7874503;30;19973;-73
2022/06/02 00:08:19;;;;;;;;;;;;;;;10.53;74.46;99502.09;7881409;30;20328;-73
2022/06/02 00:12:26;;;;;;;;;;;;;;;10.44;74.93;99510.78;7878454;30;19937;-73
2022/06/02 00:16:45;;;;;;;;;;;;;;;10.39;74.75;99509.91;7883713;30;20015;-73
2022/06/02 00:20:56;;;;;;;;;;;;;;;10.31;74.65;99516.84;7878756;30;20008;-73
2022/06/02 00:25:00;;;;;;;;;;;;;;;10.16;75.76;99520.28;7897718;30;20654;-73
2022/06/02 00:29:08;;;;;;;;;;;;;;;10.05;76.19;99511.63;7879524;30;19936;-73
2022/06/02 00:33:31;;;;;;;;;;;;;;;9.93;76.18;99522.03;7880031;30;20578;-73
2022/06/02 00:37:40;;;;;;;;;;;;;;;9.81;76.75;99533.25;7884069;30;19929;-72
2022/06/02 00:41:54;;;;;;;;;;;;;;;9.74;76.95;99526.34;7880158;30;19961;-73
2022/06/02 00:46:25;;;;;;;;;;;;;;;9.66;77.01;99534.09;7880107;30;20336;-73
2022/06/02 00:50:49;;;;;;;;;;;;;;;9.59;77.56;99534.09;7881466;30;20029;-73
2022/06/02 00:59:35;;;;;;;;;;;;;;;9.37;77.48;99538.38;7882299;30;19944;-73
2022/06/02 01:03:41;;;;;;;;;;;;;;;9.35;77.52;99537.50;7875352;30;22086;-73
2022/06/02 01:07:58;;;;;;;;;;;;;;;9.26;77.62;99535.75;7872494;30;20010;-73
2022/06/02 01:12:06;;;;;;;;;;;;;;;9.20;78.09;99530.56;7879545;30;19964;-73
2022/06/02 01:16:10;;;;;;;;;;;;;;;9.11;78.32;99537.41;7895197;30;20336;-73
2022/06/02 01:20:12;;;;;;;;;;;;;;;9.01;78.56;99534.81;7876157;30;20350;-73
2022/06/02 01:24:19;;;;;;;;;;;;;;;8.97;78.96;99533.03;7881122;30;20044;-73
2022/06/02 01:28:40;;;;;;;;;;;;;;;8.88;78.93;99540.78;7881321;30;19937;-73
2022/06/02 01:32:48;;;;;;;;;;;;;;;8.78;79.28;99537.25;7881166;30;19992;-73
2022/06/02 01:36:55;;;;;;;;;;;;;;;8.75;79.36;99542.44;7883906;30;19987;-73
2022/06/02 01:41:11;;;;;;;;;;;;;;;8.68;79.53;99542.41;7898856;30;19938;-73
2022/06/02 01:45:22;;;;;;;;;;;;;;;8.65;79.50;99543.25;7880517;30;19969;-73
2022/06/02 01:49:30;;;;;;;;;;;;;;;8.59;79.95;99542.34;7878668;30;20025;-73
2022/06/02 01:53:42;;;;;;;;;;;;;;;8.53;79.44;99545.75;7878876;30;19964;-73
2022/06/02 01:57:50;;;;;;;;;;;;;;;8.42;80.21;99550.84;7880916;30;19925;-73
2022/06/02 02:02:17;;;;;;;;;;;;;;;8.37;80.15;99555.13;7877738;30;19934;-73
2022/06/02 02:06:27;;;;;;;;;;;;;;;8.32;80.34;99554.22;7880468;30;19942;-73
2022/06/02 02:10:29;;;;;;;;;;;;;;;8.25;80.06;99565.34;7898672;30;20037;-73
2022/06/02 02:14:53;;;;;;;;;;;;;;;8.16;79.95;99562.72;7900176;30;19929;-73
2022/06/02 02:18:58;;;;;;;;;;;;;;;8.08;80.14;99564.38;7880382;30;19960;-73
2022/06/02 02:23:12;;;;;;;;;;;;;;;8.00;80.55;99564.31;7884619;30;20423;-73
2022/06/02 02:27:20;;;;;;;;;;;;;;;7.98;81.08;99562.56;7895533;30;19969;-73
2022/06/02 02:31:25;;;;;;;;;;;;;;;7.95;81.14;99565.13;7877423;30;19930;-73
2022/06/02 02:35:39;;;;;;;;;;;;;;;7.92;81.34;99565.97;7899433;30;20017;-73
2022/06/02 02:39:40;;;;;;;;;;;;;;;7.88;81.34;99566.75;7883360;30;20351;-73
2022/06/02 02:43:41;;;;;;;;;;;;;;;7.83;81.00;99569.31;7877441;30;19940;-73
2022/06/02 02:47:55;;;;;;;;;;;;;;;7.81;80.94;99577.91;7879507;30;19930;-73
2022/06/02 02:51:59;;;;;;;;;;;;;;;7.77;81.19;99577.03;7898873;30;20317;-73
2022/06/02 02:56:16;;;;;;;;;;;;;;;7.70;81.73;99580.38;7897596;30;19972;-73
2022/06/02 03:00:21;;;;;;;;;;;;;;;7.71;82.00;99581.25;7881400;30;19929;-73
2022/06/02 03:04:48;;;;;;;;;;;;;;;7.72;82.30;99581.28;7876744;30;19941;-73
2022/06/02 03:08:52;;;;;;;;;;;;;;;7.68;81.58;99583.81;7880078;30;19976;-72
2022/06/02 03:13:11;;;;;;;;;;;;;;;7.66;81.72;99598.44;7896251;30;20544;-73
2022/06/02 03:17:27;;;;;;;;;;;;;;;7.60;81.44;99590.63;7877551;30;19929;-73
2022/06/02 03:21:35;;;;;;;;;;;;;;;7.51;81.66;99587.06;7877120;30;20362;-73
2022/06/02 03:25:41;;;;;;;;;;;;;;;7.45;81.68;99588.72;7892373;30;20783;-73
2022/06/02 03:30:01;;;;;;;;;;;;;;;7.35;81.76;99589.47;7876894;30;19969;-72
2022/06/02 03:34:08;;;;;;;;;;;;;;;7.28;82.30;99583.38;7877408;30;19929;-73
2022/06/02 03:38:30;;;;;;;;;;;;;;;7.31;82.97;99590.28;7893179;30;19973;-73
2022/06/02 03:42:34;;;;;;;;;;;;;;;7.22;82.96;99591.94;7887111;30;20013;-73
2022/06/02 03:46:48;;;;;;;;;;;;;;;7.20;82.57;99593.63;7906151;30;19973;-73
2022/06/02 03:51:12;;;;;;;;;;;;;;;7.18;82.55;99604.75;7887895;30;19965;-73
2022/06/02 03:55:31;;;;;;;;;;;;;;;7.18;82.82;99597.00;7884584;30;20060;-73
2022/06/02 03:59:43;;;;;;;;;;;;;;;7.20;82.75;99600.50;7886703;30;20036;-73
2022/06/02 04:04:00;;;;;;;;;;;;;;;7.21;82.55;99608.28;7886892;30;19934;-73
2022/06/02 04:08:27;;;;;;;;;;;;;;;7.14;82.66;99597.81;7902492;30;19973;-73
2022/06/02 04:17:10;;;;;;;;;;;;;;;7.25;83.15;99598.84;7895602;30;19930;-73
2022/06/02 04:21:30;;;;;;;;;;;;;;;7.27;83.00;99598.00;7903671;30;19933;-73
2022/06/02 04:25:32;;;;;;;;;;;;;;;7.37;83.34;99606.75;7884633;30;19929;-73
2022/06/02 04:29:42;;;;;;;;;;;;;;;7.45;83.23;99617.16;7886027;30;20028;-76
2022/06/02 04:33:54;;;;;;;;;;;;;;;7.60;83.42;99613.88;7887258;30;20040;-75
2022/06/02 04:38:22;;;;;;;;;;;;;;;7.77;83.21;99610.63;7861237;30;19965;-76
2022/06/02 04:42:32;;;;;;;;;;;;;;;7.97;82.96;99615.13;7885047;29;19929;-76
2022/06/02 04:46:52;;;;;;;;;;;;;;;8.09;82.24;99620.41;7882852;30;19930;-76
2022/06/02 04:50:53;;;;;;;;;;;;;;;8.23;81.95;99628.28;7885939;30;20658;-76
2022/06/02 04:55:21;;;;;;;;;;;;;;;8.40;81.56;99622.44;7880140;30;19965;-75
2022/06/02 04:59:26;;;;;;;;;;;;;;;8.64;81.09;99626.94;7883938;30;19926;-75
2022/06/02 05:03:27;;;;;;;;;;;;;;;8.87;80.77;99616.72;7881282;30;19965;-75
2022/06/02 05:07:35;;;;;;;;;;;;;;;9.16;79.90;99632.44;7896846;30;19965;-75
2022/06/02 05:11:45;;;;;;;;;;;;;;;9.47;79.56;99638.59;7881468;30;19964;-77
2022/06/02 05:15:53;;;;;;;;;;;;;;;9.69;79.13;99636.94;7882885;30;20037;-77
2022/06/02 05:19:54;;;;;;;;;;;;;;;9.95;78.08;99632.72;7885604;30;19930;-75
2022/06/02 05:23:59;;;;;;;;;;;;;;;10.30;77.48;99637.09;7899477;30;19940;-75
2022/06/02 05:28:08;;;;;;;;;;;;;;;10.69;76.25;99632.78;7881341;30;19961;-75
2022/06/02 05:32:30;;;;;;;;;;;;;;;11.15;75.23;99633.56;7877208;30;20355;-75
2022/06/02 05:36:38;;;;;;;;;;;;;;;11.73;73.40;99657.59;7874960;30;20032;-77
2022/06/02 05:40:42;;;;;;;;;;;;;;;12.28;71.38;99659.91;7880393;30;19930;-76
2022/06/02 05:44:43;;;;;;;;;;;;;;;12.83;68.49;99646.41;7883034;30;19936;-77
2022/06/02 05:48:48;;;;;;;;;;;;;;;13.41;67.57;99643.22;7883009;30;19930;-77
2022/06/02 05:53:08;;;;;;;;;;;;;;;13.93;65.20;99633.88;7899964;29;19939;-77
2022/06/02 05:57:21;;;;;;;;;;;;;;;14.50;63.71;99633.00;7868035;30;20056;-77
2022/06/02 06:01:47;;;;;;;;;;;;;;;14.96;61.91;99629.59;7878116;30;20072;-77
2022/06/02 06:06:00;;;;;;;;;;;;;;;15.50;60.20;99639.03;7878608;30;19941;-77
2022/06/02 06:10:07;;;;;;;;;;;;;;;16.08;58.29;99643.91;7881555;30;19986;-77
2022/06/02 06:14:27;;;;;;;;;;;;;;;16.61;55.85;99636.53;7870210;30;19930;-77
2022/06/02 06:18:38;;;;;;;;;;;;;;;17.19;53.34;99645.50;7894884;30;20822;-76
2022/06/02 06:23:03;;;;;;;;;;;;;;;17.73;51.42;99644.88;7876536;30;20334;-76
2022/06/02 06:27:12;;;;;;;;;;;;;;;18.15;51.41;99652.41;7883262;30;19930;-76
2022/06/02 06:31:23;;;;;;;;;;;;;;;18.50;49.24;99651.28;7878238;30;19946;-77
2022/06/02 06:35:37;;;;;;;;;;;;;;;18.85;48.82;99642.22;7877376;30;19930;-77
2022/06/02 06:39:48;;;;;;;;;;;;;;;19.04;47.95;99637.22;7873573;30;19930;-77
2022/06/02 06:44:09;;;;;;;;;;;;;;;19.21;46.41;99630.44;7878261;30;19930;-78
2022/06/02 06:48:18;;;;;;;;;;;;;;;19.30;46.12;99630.09;7876295;30;19940;-76
2022/06/02 06:52:26;;;;;;;;;;;;;;;19.40;45.78;99630.63;7875705;30;20016;-77
2022/06/02 06:56:35;;;;;;;;;;;;;;;19.39;45.60;99628.91;7884007;30;20350;-77
2022/06/02 07:00:42;;;;;;;;;;;;;;;19.58;45.37;99629.13;7874106;30;19973;-77
2022/06/02 07:04:50;;;;;;;;;;;;;;;19.77;43.11;99627.53;7873285;30;19972;-78
2022/06/02 07:09:11;;;;;;;;;;;;;;;19.89;42.99;99616.47;7894584;30;19957;-77
2022/06/02 07:13:26;;;;;;;;;;;;;;;20.12;42.67;99615.59;7878059;30;19930;-77
2022/06/02 07:17:27;;;;;;;;;;;;;;;20.25;41.72;99620.38;7877463;30;20242;-77
2022/06/02 07:22:04;;;;;;;;;;;;;;;20.27;41.23;99626.44;7878101;30;19937;-77
2022/06/02 07:26:11;;;;;;;;;;;;;;;20.14;41.66;99628.72;7857805;30;19934;-78
2022/06/02 07:30:20;;;;;;;;;;;;;;;19.98;41.05;99630.25;7878377;30;19930;-77
2022/06/02 07:34:38;;;;;;;;;;;;;;;20.25;41.57;99629.13;7881375;30;19930;-77
2022/06/02 07:38:56;;;;;;;;;;;;;;;20.42;41.11;99632.00;7878775;30;19930;-77
2022/06/02 07:42:58;;;;;;;;;;;;;;;20.62;41.45;99627.66;7871285;30;20548;-77
2022/06/02 07:47:15;;;;;;;;;;;;;;;20.51;40.06;99629.00;7895984;30;20461;-77
2022/06/02 07:51:36;;;;;;;;;;;;;;;20.67;39.97;99623.94;7873890;30;19969;-77
2022/06/02 07:55:40;;;;;;;;;;;;;;;20.73;39.14;99617.53;7878919;30;19973;-76
2022/06/02 07:59:53;;;;;;;;;;;;;;;20.80;39.22;99616.34;7877548;30;19937;-77
2022/06/02 08:04:14;;;;;;;;;;;;;;;21.18;39.42;99619.09;7890006;30;19969;-77
2022/06/02 08:08:21;;;;;;;;;;;;;;;21.57;37.27;99622.66;7886211;30;19976;-76
2022/06/02 08:12:35;;;;;;;;;;;;;;;21.78;37.46;99626.09;7877614;30;19936;-76
2022/06/02 08:16:51;;;;;;;;;;;;;;;21.89;36.88;99615.84;7877769;30;19929;-76
2022/06/02 08:21:18;;;;;;;;;;;;;;;21.98;36.96;99625.16;7892761;30;20332;-75
2022/06/02 08:25:23;;;;;;;;;;;;;;;22.03;36.77;99621.34;7874808;30;19962;-75
2022/06/02 08:29:25;;;;;;;;;;;;;;;22.31;36.36;99615.63;7877257;30;19992;-75
2022/06/02 08:33:36;;;;;;;;;;;;;;;22.72;36.19;99617.13;7861658;30;20011;-75
2022/06/02 08:37:45;;;;;;;;;;;;;;;22.95;36.09;99621.28;7875458;30;20403;-75
2022/06/02 08:42:04;;;;;;;;;;;;;;;23.07;34.75;99612.72;7889757;30;19984;-75
2022/06/02 08:46:24;;;;;;;;;;;;;;;23.16;34.96;99604.28;7868466;30;19944;-75
2022/06/02 08:50:31;;;;;;;;;;;;;;;23.31;34.81;99597.31;7884759;30;19995;-75
2022/06/02 08:54:52;;;;;;;;;;;;;;;23.26;34.97;99604.66;7877365;30;20246;-76
2022/06/02 08:59:12;;;;;;;;;;;;;;;23.15;34.95;99597.25;7893025;30;19930;-77
2022/06/02 09:03:20;;;;;;;;;;;;;;;23.23;33.40;99604.84;7873796;30;19980;-77
2022/06/02 09:07:39;;;;;;;;;;;;;;;23.13;34.70;99602.66;7874130;30;19929;-76
2022/06/02 09:11:48;;;;;;;;;;;;;;;23.05;34.69;99596.91;7873975;30;19929;-76
2022/06/02 09:15:56;;;;;;;;;;;;;;;22.91;34.39;99596.75;7873205;30;19940;-76
2022/06/02 09:20:16;;;;;;;;;;;;;;;22.84;34.62;99600.69;7874988;30;20548;-76
2022/06/02 09:24:25;;;;;;;;;;;;;;;22.71;34.90;99591.59;7871189;30;19930;-76
2022/06/02 09:28:26;;;;;;;;;;;;;;;22.64;35.72;99596.38;7868610;30;19972;-76
2022/06/02 09:32:28;;;;;;;;;;;;;;;22.82;36.10;99595.47;7873372;30;20458;-76
2022/06/02 09:36:42;;;;;;;;;;;;;;;23.10;34.58;99597.50;7868407;30;19930;-76
2022/06/02 09:40:43;;;;;;;;;;;;;;;23.18;34.25;99605.94;7889611;30;19941;-76
2022/06/02 09:44:53;;;;;;;;;;;;;;;23.29;34.74;99604.50;7874500;30;19973;-76
2022/06/02 09:49:14;;;;;;;;;;;;;;;23.33;34.53;99609.53;7874586;30;19929;-76
2022/06/02 09:53:35;;;;;;;;;;;;;;;23.34;34.16;99613.03;7875740;30;19940;-76
2022/06/02 09:57:56;;;;;;;;;;;;;;;23.52;34.33;99604.13;7865526;30;19934;-76
2022/06/02 10:02:10;;;;;;;;;;;;;;;23.75;33.51;99610.88;7870836;30;19965;-74
2022/06/02 10:06:30;;;;;;;;;;;;;;;23.75;33.94;99614.38;7889100;30;19980;-74
2022/06/02 10:10:33;;;;;;;;;;;;;;;23.71;33.45;99610.19;7869974;30;19933;-73
2022/06/02 10:14:47;;;;;;;;;;;;;;;23.76;33.25;99607.28;7888064;30;20029;-75
2022/06/02 10:19:01;;;;;;;;;;;;;;;23.83;32.24;99602.47;7892170;30;19973;-75
2022/06/02 10:23:19;;;;;;;;;;;;;;;23.85;33.31;99612.06;7887714;30;19981;-76
2022/06/02 10:27:23;;;;;;;;;;;;;;;23.87;33.09;99615.47;7871073;30;19941;-75
2022/06/02 10:31:43;;;;;;;;;;;;;;;23.87;33.02;99612.81;7869862;30;20467;-75
2022/06/02 10:36:03;;;;;;;;;;;;;;;24.02;33.99;99593.41;7870441;30;20680;-75
2022/06/02 10:40:12;;;;;;;;;;;;;;;24.23;33.17;99603.75;7876170;30;19930;-76
2022/06/02 10:44:19;;;;;;;;;;;;;;;24.18;32.35;99595.19;7868738;30;20044;-76
2022/06/02 10:48:20;;;;;;;;;;;;;;;24.09;32.05;99596.59;7855862;30;19964;-75
2022/06/02 10:52:46;;;;;;;;;;;;;;;23.89;31.67;99589.75;7875023;30;20288;-75
2022/06/02 10:57:03;;;;;;;;;;;;;;;23.92;33.30;99594.03;7880478;30;19977;-76
2022/06/02 11:01:22;;;;;;;;;;;;;;;23.77;31.77;99587.78;7889338;30;20245;-76
2022/06/02 11:05:50;;;;;;;;;;;;;;;23.65;32.83;99586.63;7874381;30;20024;-74
2022/06/02 11:10:15;;;;;;;;;;;;;;;23.55;33.76;99589.84;7877162;30;19933;-74
2022/06/02 11:14:25;;;;;;;;;;;;;;;23.34;33.73;99594.50;7874852;30;19938;-74
2022/06/02 11:18:52;;;;;;;;;;;;;;;23.07;34.14;99587.09;7876530;30;19973;-73
2022/06/02 11:23:03;;;;;;;;;;;;;;;22.83;34.98;99572.50;7871064;30;19941;-73
2022/06/02 11:28:02;;;;;;;;;;;;;;;22.68;34.65;99571.44;7873396;30;20586;-73
2022/06/02 11:32:11;;;;;;;;;;;;;;;22.63;35.29;99564.69;7929930;29;20023;-73
2022/06/02 11:36:24;;;;;;;;;;;;;;;22.67;35.52;99558.28;7932633;29;20052;-73
2022/06/02 11:40:34;;;;;;;;;;;;;;;22.73;34.95;99563.25;7933936;29;19935;-73
2022/06/02 11:44:54;;;;;;;;;;;;;;;22.84;35.28;99553.00;7931089;29;20660;-73
2022/06/02 11:49:22;;;;;;;;;;;;;;;23.13;35.04;99548.81;7929884;29;19939;-73
2022/06/02 11:53:52;;;;;;;;;;;;;;;23.50;34.85;99539.72;7910566;29;20032;-73
2022/06/02 11:58:12;;;;;;;;;;;;;;;23.81;33.72;99536.25;7917378;29;20330;-73
2022/06/02 12:02:36;;;;;;;;;;;;;;;24.05;33.16;99526.03;7899207;29;20038;-74
2022/06/02 12:06:41;;;;;;;;;;;;;;;24.34;34.39;99527.91;7875117;30;20566;-74
2022/06/02 12:10:42;;;;;;;;;;;;;;;24.43;31.72;99534.50;7876152;30;20399;-74
2022/06/02 12:14:52;;;;;;;;;;;;;;;24.62;33.58;99526.28;7877998;30;19964;-74
2022/06/02 12:19:03;;;;;;;;;;;;;;;24.68;32.32;99521.44;7874847;30;20579;-74
2022/06/02 12:23:04;;;;;;;;;;;;;;;24.93;34.54;99522.59;7876596;30;20384;-74
2022/06/02 12:27:24;;;;;;;;;;;;;;;25.17;33.50;99529.13;7876952;30;20024;-74
2022/06/02 12:31:45;;;;;;;;;;;;;;;25.24;31.18;99519.78;7879129;30;20049;-74
2022/06/02 12:35:52;;;;;;;;;;;;;;;25.14;30.63;99516.03;7875549;30;20037;-75
2022/06/02 12:40:13;;;;;;;;;;;;;;;24.99;31.79;99514.28;7875332;30;19965;-75
2022/06/02 12:44:40;;;;;;;;;;;;;;;25.12;31.39;99515.22;7880284;30;19930;-75
2022/06/02 12:48:51;;;;;;;;;;;;;;;25.02;30.11;99506.13;7874504;30;19930;-76
2022/06/02 12:53:02;;;;;;;;;;;;;;;25.15;32.34;99500.94;7879584;30;19983;-76
2022/06/02 12:57:12;;;;;;;;;;;;;;;25.25;31.70;99508.22;7880275;30;19993;-75
2022/06/02 13:01:32;;;;;;;;;;;;;;;25.22;30.43;99488.94;7889011;30;20024;-75
2022/06/02 13:05:34;;;;;;;;;;;;;;;25.30;32.70;99494.63;7882710;30;19965;-75
2022/06/02 13:10:01;;;;;;;;;;;;;;;25.39;30.76;99488.72;7877044;30;19955;-75
2022/06/02 13:14:05;;;;;;;;;;;;;;;25.55;32.17;99494.78;7866005;30;19940;-75
2022/06/02 13:18:33;;;;;;;;;;;;;;;25.91;33.17;99485.38;7878323;30;20020;-75
2022/06/02 13:22:35;;;;;;;;;;;;;;;26.10;31.65;99479.69;7872441;30;19952;-75
2022/06/02 13:27:14;;;;;;;;;;;;;;;26.03;31.42;99465.97;7872113;30;20576;-75
2022/06/02 13:31:35;;;;;;;;;;;;;;;26.10;31.63;99459.25;7866987;30;19940;-76
2022/06/02 13:35:55;;;;;;;;;;;;;;;26.00;31.11;99455.50;7870505;30;20016;-75
2022/06/02 13:40:15;;;;;;;;;;;;;;;25.99;31.84;99452.94;7872172;30;19934;-75
2022/06/02 13:44:20;;;;;;;;;;;;;;;25.99;32.42;99456.44;7871084;30;19940;-75
2022/06/02 13:48:30;;;;;;;;;;;;;;;26.11;32.07;99447.66;7885038;30;19940;-75
2022/06/02 13:52:47;;;;;;;;;;;;;;;26.28;31.80;99443.00;7872803;30;20825;-75
2022/06/02 14:01:24;;;;;;;;;;;;;;;26.15;32.08;99445.63;7891041;29;19984;-74
2022/06/02 14:05:25;;;;;;;;;;;;;;;26.14;31.72;99450.09;7861713;30;19933;-75
2022/06/02 14:09:36;;;;;;;;;;;;;;;26.15;31.77;99445.63;7889644;29;19940;-74
2022/06/02 14:13:47;;;;;;;;;;;;;;;26.07;31.80;99445.31;7871763;30;20339;-74
2022/06/02 14:18:07;;;;;;;;;;;;;;;26.04;32.37;99438.38;7871169;30;20306;-74
2022/06/02 14:22:19;;;;;;;;;;;;;;;26.24;31.40;99430.84;7871803;30;20862;-74
2022/06/02 14:26:27;;;;;;;;;;;;;;;26.20;32.22;99420.41;7865902;30;20029;-74
2022/06/02 14:30:52;;;;;;;;;;;;;;;26.34;31.74;99416.78;7871055;30;20952;-74
2022/06/02 14:35:13;;;;;;;;;;;;;;;26.36;30.94;99417.56;7876593;30;19929;-75
2022/06/02 14:39:26;;;;;;;;;;;;;;;26.38;31.79;99407.66;7886044;30;20040;-75
2022/06/02 14:43:33;;;;;;;;;;;;;;;26.21;30.96;99410.59;7869572;30;19929;-74
2022/06/02 14:47:54;;;;;;;;;;;;;;;26.08;31.59;99407.94;7873980;30;20308;-75
2022/06/02 14:52:31;;;;;;;;;;;;;;;26.22;31.87;99401.69;7891275;30;19941;-75
2022/06/02 14:56:46;;;;;;;;;;;;;;;26.45;31.90;99408.09;7872150;30;19936;-75
2022/06/02 15:00:50;;;;;;;;;;;;;;;26.47;30.99;99404.38;7884997;30;20332;-76
2022/06/02 15:04:56;;;;;;;;;;;;;;;26.33;31.32;99390.28;7870422;30;19957;-75
2022/06/02 15:09:14;;;;;;;;;;;;;;;26.46;31.63;99399.16;7872136;30;19933;-74
2022/06/02 15:18:06;;;;;;;;;;;;;;;26.13;31.35;99410.28;7871589;30;20718;-77
2022/06/02 15:22:26;;;;;;;;;;;;;;;26.03;31.62;99418.06;7873195;30;20417;-77
2022/06/02 15:26:39;;;;;;;;;;;;;;;25.93;31.39;99410.78;7894034;30;20608;-76
2022/06/02 15:31:06;;;;;;;;;;;;;;;25.85;31.94;99411.28;7881734;30;19936;-76
2022/06/02 15:35:26;;;;;;;;;;;;;;;25.65;31.94;99404.59;7893675;29;19937;-76
2022/06/02 15:39:37;;;;;;;;;;;;;;;25.40;32.49;99401.84;7876102;30;19934;-77
2022/06/02 15:43:53;;;;;;;;;;;;;;;25.39;32.42;99405.47;7876441;30;20021;-76
2022/06/02 15:48:18;;;;;;;;;;;;;;;25.59;32.01;99397.03;7889338;30;19940;-76
2022/06/02 15:52:26;;;;;;;;;;;;;;;25.85;32.17;99385.56;7886195;29;19929;-77
2022/06/02 15:56:37;;;;;;;;;;;;;;;26.11;31.52;99377.59;7894205;30;19934;-76
2022/06/02 16:00:42;;;;;;;;;;;;;;;26.37;31.46;99370.50;7874043;30;19936;-76
2022/06/02 16:05:04;;;;;;;;;;;;;;;26.60;31.13;99368.91;7879491;30;19937;-76
2022/06/02 16:14:02;;;;;;;;;;;;;;;26.52;30.65;99364.09;7876215;30;19929;-76
2022/06/02 16:18:03;;;;;;;;;;;;;;;26.04;30.74;99363.88;7861806;30;20055;-76
2022/06/02 16:22:05;;;;;;;;;;;;;;;25.56;31.31;99362.66;7889152;30;19930;-75
2022/06/02 16:26:31;;;;;;;;;;;;;;;25.41;31.74;99369.00;7877122;30;19940;-74
2022/06/02 16:30:55;;;;;;;;;;;;;;;25.52;31.85;99370.00;7871918;30;19930;-75
2022/06/02 16:35:15;;;;;;;;;;;;;;;25.34;31.95;99357.06;7897858;29;19929;-77
2022/06/02 16:39:26;;;;;;;;;;;;;;;25.08;33.20;99356.94;7874011;30;19926;-77
2022/06/02 16:43:41;;;;;;;;;;;;;;;24.82;32.96;99350.63;7891302;30;19941;-77
2022/06/02 16:48:11;;;;;;;;;;;;;;;24.66;33.42;99348.06;7887765;30;20025;-76
2022/06/02 16:52:32;;;;;;;;;;;;;;;24.50;33.82;99355.28;7894165;29;20742;-77
2022/06/02 16:56:34;;;;;;;;;;;;;;;24.31;33.89;99357.38;7878460;30;20018;-77
2022/06/02 17:00:54;;;;;;;;;;;;;;;24.14;34.67;99350.41;7878279;30;19937;-77
2022/06/02 17:05:19;;;;;;;;;;;;;;;23.92;34.89;99344.69;7878029;30;20017;-76
2022/06/02 17:09:40;;;;;;;;;;;;;;;23.69;34.81;99341.59;7889440;30;20260;-76
2022/06/02 17:13:59;;;;;;;;;;;;;;;23.52;35.13;99341.72;7898557;29;19929;-76
2022/06/02 17:18:14;;;;;;;;;;;;;;;23.31;35.72;99351.72;7878559;30;19929;-77
2022/06/02 17:22:31;;;;;;;;;;;;;;;23.08;35.92;99345.09;7881869;30;19936;-77
2022/06/02 17:26:51;;;;;;;;;;;;;;;22.93;37.10;99351.25;7878768;30;20391;-76
2022/06/02 17:30:58;;;;;;;;;;;;;;;22.79;37.43;99351.13;7875948;30;19930;-76
2022/06/02 17:35:15;;;;;;;;;;;;;;;22.72;37.38;99357.69;7878014;30;19930;-75
2022/06/02 17:39:23;;;;;;;;;;;;;;;22.61;37.39;99364.41;7882925;30;20292;-76
2022/06/02 17:43:33;;;;;;;;;;;;;;;22.55;37.59;99358.63;7881223;30;19929;-76
2022/06/02 17:47:38;;;;;;;;;;;;;;;22.53;37.20;99371.06;7890905;30;19930;-76
2022/06/02 17:51:48;;;;;;;;;;;;;;;22.47;37.88;99366.97;7896223;30;19976;-76
2022/06/02 17:56:06;;;;;;;;;;;;;;;22.43;38.18;99362.75;7884279;30;19933;-76
2022/06/02 18:00:21;;;;;;;;;;;;;;;22.33;38.96;99355.41;7896976;29;19937;-76
2022/06/02 18:04:41;;;;;;;;;;;;;;;22.21;38.68;99347.19;7878748;30;20317;-75
2022/06/02 18:08:48;;;;;;;;;;;;;;;;;;7879791;30;19934;-76
2022/06/02 18:13:08;;;;;;;;;;;;;;;22.07;38.63;99352.31;7874660;30;20307;-76
2022/06/02 18:17:28;;;;;;;;;;;;;;;21.95;38.81;99335.28;7879841;30;20024;-76
2022/06/02 18:22:02;;;;;;;;;;;;;;;21.92;39.55;99339.91;7881429;30;19941;-76
2022/06/02 18:26:11;;;;;;;;;;;;;;;21.87;38.64;99341.91;7893027;30;19933;-76
2022/06/02 18:30:20;;;;;;;;;;;;;;;21.85;38.41;99338.47;7888599;30;19940;-76
2022/06/02 18:34:33;;;;;;;;;;;;;;;21.78;38.48;99339.75;7877288;30;20029;-76
2022/06/02 18:38:55;;;;;;;;;;;;;;;21.75;38.51;99335.47;7891539;30;20056;-76
2022/06/02 18:43:15;;;;;;;;;;;;;;;21.69;39.18;99349.81;7880897;30;20396;-76
2022/06/02 18:47:46;;;;;;;;;;;;;;;21.61;39.04;99340.59;7882407;30;19991;-76
2022/06/02 18:51:47;;;;;;;;;;;;;;;21.53;40.17;99354.16;7886654;29;19953;-76
2022/06/02 18:55:52;;;;;;;;;;;;;;;21.42;40.76;99356.50;7878207;30;19934;-76
2022/06/02 19:00:05;;;;;;;;;;;;;;;21.29;40.60;99350.97;7890158;30;19996;-76
2022/06/02 19:04:26;;;;;;;;;;;;;;;21.18;39.82;99352.38;7879478;30;20411;-76
2022/06/02 19:17:55;;;;;;;;;;;;;;;20.49;41.19;99347.72;7874445;30;19972;-76
2022/06/02 19:22:12;;;;;;;;;;;;;;;20.33;41.17;99359.84;7897604;29;19930;-76
2022/06/02 19:26:21;;;;;;;;;;;;;;;20.18;40.92;99356.94;7878302;30;19930;-74
2022/06/02 19:30:26;;;;;;;;;;;;;;;20.03;41.32;99357.63;7868894;30;20382;-75
2022/06/02 19:34:47;;;;;;;;;;;;;;;19.85;41.17;99361.91;7875324;30;19930;-73
2022/06/02 19:38:53;;;;;;;;;;;;;;;19.75;41.81;99365.88;7877302;30;19969;-73
2022/06/02 19:43:07;;;;;;;;;;;;;;;19.64;41.92;99375.13;7871503;30;19930;-73
2022/06/02 19:47:20;;;;;;;;;;;;;;;19.54;42.47;99377.28;7893019;30;19941;-73
2022/06/02 19:51:34;;;;;;;;;;;;;;;19.44;42.41;99382.03;7878951;30;19930;-73
2022/06/02 19:56:00;;;;;;;;;;;;;;;19.28;42.71;99367.78;7862832;30;20003;-73
2022/06/02 20:00:10;;;;;;;;;;;;;;;19.13;43.02;99368.38;7872605;30;19930;-74
2022/06/02 20:04:17;;;;;;;;;;;;;;;19.05;42.73;99376.59;7877103;30;19939;-73
2022/06/02 20:08:25;;;;;;;;;;;;;;;18.92;43.39;99376.22;7879043;30;19934;-73
2022/06/02 20:12:40;;;;;;;;;;;;;;;18.77;44.91;99382.06;7894129;30;19929;-73
2022/06/02 20:16:46;;;;;;;;;;;;;;;18.62;44.29;99377.31;7875800;30;19930;-73
2022/06/02 20:20:48;;;;;;;;;;;;;;;18.38;46.69;99381.72;7894128;30;19957;-73
2022/06/02 20:24:52;;;;;;;;;;;;;;;18.09;46.71;99378.34;7897538;29;19944;-73
2022/06/02 20:29:08;;;;;;;;;;;;;;;18.02;45.88;99381.25;7880864;30;19929;-72
2022/06/02 20:33:28;;;;;;;;;;;;;;;17.93;46.97;99377.16;7898464;29;19930;-72
2022/06/02 20:37:59;;;;;;;;;;;;;;;17.85;46.43;99379.22;7882195;30;19941;-73
2022/06/02 20:42:09;;;;;;;;;;;;;;;17.70;48.09;99380.59;7884540;30;20017;-72
2022/06/02 20:46:25;;;;;;;;;;;;;;;17.55;49.57;99377.56;7879148;30;19930;-73
2022/06/02 20:50:50;;;;;;;;;;;;;;;17.30;49.77;99386.25;7881403;30;19941;-74
2022/06/02 20:54:54;;;;;;;;;;;;;;;17.04;50.28;99392.31;7879824;30;19972;-73
2022/06/02 20:59:28;;;;;;;;;;;;;;;16.85;51.42;99391.13;7881377;30;19930;-73
2022/06/02 21:03:45;;;;;;;;;;;;;;;16.57;52.25;99383.22;7889321;30;20521;-74
2022/06/02 21:08:02;;;;;;;;;;;;;;;16.43;53.51;99383.59;7878966;30;19972;-73
2022/06/02 21:12:20;;;;;;;;;;;;;;;16.24;54.31;99391.13;7872904;30;20414;-74
2022/06/02 21:16:40;;;;;;;;;;;;;;;16.04;55.79;99385.56;7863860;30;19976;-73
2022/06/02 21:20:46;;;;;;;;;;;;;;;15.89;56.02;99383.34;7880280;30;19976;-73
2022/06/02 21:24:47;;;;;;;;;;;;;;;15.79;56.30;99385.31;7880397;30;20020;-73
2022/06/02 21:28:54;;;;;;;;;;;;;;;15.65;56.82;99390.94;7893696;29;20912;-73
2022/06/02 21:33:21;;;;;;;;;;;;;;;15.52;57.80;99392.09;7894329;30;20008;-73
2022/06/02 21:37:24;;;;;;;;;;;;;;;15.39;58.40;99388.03;7882632;30;19939;-74
2022/06/02 21:41:40;;;;;;;;;;;;;;;15.29;58.53;99381.31;7894411;30;20032;-73
2022/06/02 21:45:42;;;;;;;;;;;;;;;15.23;58.97;99381.44;7880256;30;20329;-74
2022/06/02 21:49:46;;;;;;;;;;;;;;;15.16;58.99;99380.75;7893642;30;19973;-73
2022/06/02 21:54:05;;;;;;;;;;;;;;;15.03;59.43;99376.69;7880479;30;19937;-73
2022/06/02 21:58:10;;;;;;;;;;;;;;;14.98;59.57;99392.47;7880119;30;19977;-73
2022/06/02 22:02:35;;;;;;;;;;;;;;;14.97;59.88;99397.75;7875673;30;20484;-73
2022/06/02 22:06:43;;;;;;;;;;;;;;;14.86;60.16;99387.50;7876131;30;19936;-73
2022/06/02 22:10:49;;;;;;;;;;;;;;;14.78;61.36;99379.84;7873448;30;19930;-73
2022/06/02 22:15:03;;;;;;;;;;;;;;;14.69;61.36;99384.41;7885547;30;19937;-73
2022/06/02 22:19:12;;;;;;;;;;;;;;;14.56;61.37;99389.03;7881692;30;19992;-73
2022/06/02 22:23:17;;;;;;;;;;;;;;;14.43;62.46;99385.81;7874264;30;20028;-73
2022/06/02 22:27:27;;;;;;;;;;;;;;;14.37;63.25;99395.50;7875309;30;19938;-73
2022/06/02 22:31:41;;;;;;;;;;;;;;;14.28;63.41;99391.28;7888579;30;20646;-73
2022/06/02 22:35:45;;;;;;;;;;;;;;;14.19;63.86;99399.31;7872468;30;19934;-73
2022/06/02 22:40:06;;;;;;;;;;;;;;;14.10;63.93;99386.41;7875193;30;20008;-73